createdAt,value
2022-12-19T00:00:36.741Z,16.60
2022-12-19T00:03:06.909Z,17.70
2022-12-19T00:05:39.233Z,19.90
2022-12-19T00:08:17.496Z,17.60
2022-12-19T00:10:55.244Z,12.00
2022-12-19T00:13:24.197Z,15.10
2022-12-19T00:15:53.060Z,1.00
2022-12-19T00:18:23.571Z,9.80
2022-12-19T00:20:59.447Z,1.00
2022-12-19T00:23:33.632Z,7.20
2022-12-19T00:26:09.907Z,8.60
2022-12-19T00:28:38.403Z,1.00
2022-12-19T00:31:07.634Z,6.10
2022-12-19T00:33:37.612Z,1.80
2022-12-19T00:36:13.812Z,4.00
2022-12-19T00:38:43.535Z,6.00
2022-12-19T00:41:13.400Z,1.00
2022-12-19T00:43:44.154Z,5.50
2022-12-19T00:46:14.995Z,1.00
2022-12-19T00:48:45.018Z,1.00
2022-12-19T00:51:15.706Z,1.00
2022-12-19T00:53:45.257Z,1.00
2022-12-19T00:56:16.468Z,1.00
2022-12-19T00:58:47.246Z,1.00
2022-12-19T01:01:18.758Z,1.00
2022-12-19T01:04:26.075Z,1.00
2022-12-19T01:06:37.861Z,1.00
2022-12-19T01:09:07.771Z,1.00
2022-12-19T01:12:02.008Z,1.00
2022-12-19T01:14:30.627Z,1.00
2022-12-19T01:16:59.211Z,1.00
2022-12-19T01:19:29.458Z,1.00
2022-12-19T01:21:58.044Z,1.00
2022-12-19T01:24:27.491Z,1.00
2022-12-19T01:26:56.047Z,1.00
2022-12-19T01:29:24.550Z,1.00
2022-12-19T01:31:53.303Z,1.00
2022-12-19T01:34:21.890Z,1.00
2022-12-19T01:36:51.773Z,1.00
2022-12-19T01:39:20.257Z,1.00
2022-12-19T01:41:50.578Z,1.00
2022-12-19T01:44:19.358Z,1.00
2022-12-19T01:46:50.101Z,1.00
2022-12-19T01:49:29.750Z,1.00
2022-12-19T01:52:03.640Z,1.00
2022-12-19T01:54:37.100Z,1.00
2022-12-19T01:57:10.055Z,1.00
2022-12-19T01:59:42.293Z,1.00
2022-12-19T02:02:15.454Z,1.00
2022-12-19T02:04:44.600Z,1.00
2022-12-19T02:07:17.040Z,1.00
2022-12-19T02:09:46.568Z,1.00
2022-12-19T02:12:16.063Z,1.00
2022-12-19T02:14:44.955Z,1.00
2022-12-19T02:17:22.555Z,1.00
2022-12-19T02:20:31.559Z,1.00
2022-12-19T02:23:24.886Z,1.00
2022-12-19T02:26:12.783Z,1.00
2022-12-19T02:29:01.322Z,1.00
2022-12-19T02:31:35.712Z,1.00
2022-12-19T02:34:12.430Z,1.00
2022-12-19T02:36:53.234Z,1.00
2022-12-19T02:39:31.802Z,1.00
2022-12-19T02:42:05.507Z,1.00
2022-12-19T02:44:38.736Z,1.00
2022-12-19T02:47:10.329Z,7.20
2022-12-19T02:49:40.324Z,1.00
2022-12-19T02:52:13.853Z,1.00
2022-12-19T02:54:45.303Z,1.00
2022-12-19T02:57:24.066Z,1.00
2022-12-19T03:00:04.841Z,1.00
2022-12-19T03:02:57.869Z,1.00
2022-12-19T03:05:37.183Z,1.00
2022-12-19T03:08:11.442Z,1.00
2022-12-19T03:10:44.303Z,1.00
2022-12-19T03:13:18.946Z,1.00
2022-12-19T03:15:50.492Z,1.00
2022-12-19T03:18:21.377Z,1.00
2022-12-19T03:20:55.593Z,1.00
2022-12-19T03:23:24.174Z,1.00
2022-12-19T03:25:57.283Z,1.00
2022-12-19T03:28:33.705Z,1.00
2022-12-19T03:31:04.188Z,1.00
2022-12-19T03:33:35.465Z,1.00
2022-12-19T03:36:08.903Z,1.00
2022-12-19T03:38:40.576Z,1.00
2022-12-19T03:41:12.057Z,1.00
2022-12-19T03:43:42.268Z,1.00
2022-12-19T03:46:17.594Z,1.00
2022-12-19T03:48:49.737Z,1.00
2022-12-19T03:51:27.669Z,1.00
2022-12-19T03:54:02.993Z,1.00
2022-12-19T03:56:41.281Z,1.00
2022-12-19T03:59:14.396Z,1.00
2022-12-19T04:01:43.547Z,1.00
2022-12-19T04:04:14.253Z,1.00
2022-12-19T04:06:44.745Z,1.00
2022-12-19T04:09:19.252Z,1.00
2022-12-19T04:11:54.270Z,1.00
2022-12-19T04:14:27.905Z,1.00
2022-12-19T04:17:03.551Z,1.00
2022-12-19T04:19:42.465Z,1.00
2022-12-19T04:22:17.767Z,1.00
2022-12-19T04:24:48.425Z,1.00
2022-12-19T04:27:17.063Z,1.00
2022-12-19T04:29:45.958Z,1.00
2022-12-19T04:32:15.765Z,1.00
2022-12-19T04:34:45.637Z,1.00
2022-12-19T04:37:14.368Z,1.00
2022-12-19T04:39:43.144Z,1.00
2022-12-19T04:42:11.772Z,1.00
2022-12-19T04:44:40.414Z,1.00
2022-12-19T04:47:08.936Z,1.00
2022-12-19T04:49:37.519Z,1.00
2022-12-19T04:52:07.962Z,1.00
2022-12-19T04:54:36.549Z,1.00
2022-12-19T04:57:05.346Z,1.00
2022-12-19T04:59:34.291Z,1.00
2022-12-19T05:02:03.105Z,1.00
2022-12-19T05:04:31.742Z,1.00
2022-12-19T05:07:00.343Z,1.00
2022-12-19T05:09:30.258Z,1.00
2022-12-19T05:11:58.879Z,1.00
2022-12-19T05:14:27.707Z,1.00
2022-12-19T05:17:01.543Z,1.00
2022-12-19T05:19:30.653Z,1.00
2022-12-19T05:21:59.516Z,1.00
2022-12-19T05:24:29.913Z,1.00
2022-12-19T05:26:58.484Z,1.00
2022-12-19T05:29:27.051Z,1.00
2022-12-19T05:31:55.878Z,1.00
2022-12-19T05:34:26.154Z,1.00
2022-12-19T05:36:54.785Z,1.00
2022-12-19T05:39:23.359Z,1.00
2022-12-19T05:41:53.281Z,1.00
2022-12-19T05:44:22.016Z,1.00
2022-12-19T05:46:50.717Z,1.00
2022-12-19T05:49:19.239Z,1.00
2022-12-19T05:51:48.249Z,1.00
2022-12-19T05:54:16.916Z,1.00
2022-12-19T05:56:45.500Z,1.00
2022-12-19T05:59:15.443Z,1.00
2022-12-19T06:01:44.916Z,1.00
2022-12-19T06:04:13.571Z,1.00
2022-12-19T06:06:42.119Z,1.00
2022-12-19T06:09:10.658Z,1.00
2022-12-19T06:11:39.191Z,1.00
2022-12-19T06:14:09.168Z,1.00
2022-12-19T06:16:39.200Z,1.00
2022-12-19T06:19:07.825Z,1.00
2022-12-19T06:21:39.771Z,1.00
2022-12-19T06:24:14.195Z,1.00
2022-12-19T06:26:42.783Z,1.00
2022-12-19T06:29:11.283Z,1.00
2022-12-19T06:31:41.177Z,1.00
2022-12-19T06:34:11.240Z,1.00
2022-12-19T06:36:39.861Z,1.00
2022-12-19T06:39:08.490Z,1.00
2022-12-19T06:41:54.508Z,1.00
2022-12-19T06:44:23.093Z,1.00
2022-12-19T06:46:53.415Z,1.00
2022-12-19T06:49:22.104Z,1.00
2022-12-19T06:51:50.758Z,1.00
2022-12-19T06:54:19.355Z,1.00
2022-12-19T06:56:47.935Z,1.00
2022-12-19T06:59:17.749Z,1.00
2022-12-19T07:01:57.162Z,1.00
2022-12-19T07:04:30.792Z,1.00
2022-12-19T07:07:00.111Z,1.00
2022-12-19T07:09:30.412Z,1.00
2022-12-19T07:11:58.996Z,1.00
2022-12-19T07:14:27.530Z,1.00
2022-12-19T07:17:01.195Z,1.00
2022-12-19T07:19:31.844Z,1.00
2022-12-19T07:22:01.838Z,1.00
2022-12-19T07:24:31.192Z,1.00
2022-12-19T07:27:00.093Z,1.00
2022-12-19T07:29:28.634Z,1.00
2022-12-19T07:31:58.691Z,1.00
2022-12-19T07:34:27.327Z,1.00
2022-12-19T07:36:55.923Z,1.00
2022-12-19T07:39:24.617Z,1.00
2022-12-19T07:41:53.290Z,1.00
2022-12-19T07:44:31.831Z,1.00
2022-12-19T07:47:01.761Z,1.00
2022-12-19T07:49:30.742Z,1.00
2022-12-19T07:51:59.600Z,1.00
2022-12-19T07:54:28.328Z,1.00
2022-12-19T07:56:56.934Z,1.00
2022-12-19T07:59:30.388Z,1.00
2022-12-19T08:02:02.652Z,1.00
2022-12-19T08:04:31.677Z,1.00
2022-12-19T08:07:00.293Z,1.00
2022-12-19T08:09:28.924Z,1.00
2022-12-19T08:11:57.674Z,1.00
2022-12-19T08:14:26.285Z,1.00
2022-12-19T08:19:44.953Z,1.00
2022-12-19T08:22:13.604Z,1.00
2022-12-19T08:24:42.189Z,1.00
2022-12-19T08:27:11.031Z,1.00
2022-12-19T08:29:39.628Z,1.00
2022-12-19T08:32:08.192Z,1.00
2022-12-19T08:34:37.190Z,1.00
2022-12-19T08:37:07.271Z,1.00
2022-12-19T08:39:35.898Z,1.00
2022-12-19T08:42:04.640Z,1.00
2022-12-19T08:44:34.058Z,1.00
2022-12-19T08:47:02.829Z,1.00
2022-12-19T08:49:31.572Z,1.00
2022-12-19T08:52:00.321Z,1.00
2022-12-19T08:54:30.291Z,1.00
2022-12-19T08:56:59.353Z,1.00
2022-12-19T08:59:31.601Z,1.00
2022-12-19T09:02:01.281Z,1.00
2022-12-19T09:06:04.392Z,1.00
2022-12-19T09:07:19.263Z,1.00
2022-12-19T09:09:49.223Z,1.00
2022-12-19T09:12:17.857Z,1.00
2022-12-19T09:14:46.568Z,1.00
2022-12-19T09:17:15.368Z,1.00
2022-12-19T09:19:47.638Z,1.00
2022-12-19T09:22:17.689Z,1.00
2022-12-19T09:24:48.116Z,1.00
2022-12-19T09:27:16.838Z,1.00
2022-12-19T09:29:46.621Z,1.00
2022-12-19T09:32:15.173Z,1.00
2022-12-19T09:34:43.948Z,1.00
2022-12-19T09:37:16.146Z,1.00
2022-12-19T09:39:48.200Z,1.00
2022-12-19T09:42:40.438Z,1.00
2022-12-19T09:45:32.204Z,1.00
2022-12-19T09:48:03.198Z,1.00
2022-12-19T09:50:46.749Z,1.00
2022-12-19T09:53:22.814Z,1.00
2022-12-19T09:55:55.266Z,1.00
2022-12-19T09:58:35.960Z,1.00
2022-12-19T10:01:09.358Z,1.00
2022-12-19T10:03:41.462Z,1.00
2022-12-19T10:07:10.625Z,1.00
2022-12-19T10:10:34.079Z,1.00
2022-12-19T10:12:42.984Z,1.00
2022-12-19T10:15:15.241Z,1.00
2022-12-19T10:18:05.580Z,1.00
2022-12-19T10:20:38.702Z,1.00
2022-12-19T10:23:36.905Z,1.00
2022-12-19T10:26:12.325Z,1.00
2022-12-19T10:28:55.870Z,1.00
2022-12-19T10:31:33.637Z,1.00
2022-12-19T10:34:07.968Z,1.00
2022-12-19T10:39:44.687Z,1.00
2022-12-19T10:42:18.870Z,1.00
2022-12-19T10:44:50.329Z,1.00
2022-12-19T10:47:19.170Z,1.00
2022-12-19T10:49:49.432Z,1.00
2022-12-19T10:52:52.346Z,1.00
2022-12-19T10:55:34.745Z,1.00
2022-12-19T10:58:18.304Z,1.00
2022-12-19T11:01:12.045Z,1.00
2022-12-19T11:03:43.069Z,1.00
2022-12-19T11:06:50.342Z,1.00
2022-12-19T11:09:30.830Z,1.00
2022-12-19T11:15:21.804Z,1.00
2022-12-19T11:19:30.287Z,1.00
2022-12-19T11:26:25.969Z,1.00
2022-12-19T11:29:32.982Z,1.00
2022-12-19T11:29:46.780Z,1.00
2022-12-19T11:30:36.478Z,1.00
2022-12-19T11:35:21.691Z,1.00
2022-12-19T11:37:57.307Z,1.00
2022-12-19T11:40:34.868Z,1.00
2022-12-19T11:43:43.035Z,1.00
2022-12-19T11:46:04.135Z,1.00
2022-12-19T11:48:45.612Z,1.00
2022-12-19T11:51:22.270Z,1.00
2022-12-19T11:53:58.060Z,1.00
2022-12-19T11:56:28.114Z,1.00
2022-12-19T11:59:03.761Z,1.00
2022-12-19T12:01:43.881Z,1.00
2022-12-19T12:04:40.036Z,1.00
2022-12-19T12:07:16.742Z,1.00
2022-12-19T12:16:15.243Z,1.00
2022-12-19T12:23:00.279Z,1.00
2022-12-19T12:26:52.957Z,1.00
2022-12-19T12:31:22.236Z,1.00
2022-12-19T12:31:23.145Z,1.00
2022-12-19T12:31:47.569Z,1.00
2022-12-19T12:32:04.344Z,1.00
2022-12-19T12:35:56.941Z,1.00
2022-12-19T12:38:19.237Z,1.00
2022-12-19T12:41:08.657Z,1.00
2022-12-19T12:43:48.236Z,1.00
2022-12-19T12:46:24.364Z,1.00
2022-12-19T12:48:58.537Z,1.00
2022-12-19T12:51:28.282Z,1.00
2022-12-19T12:54:03.471Z,1.00
2022-12-19T12:56:33.032Z,1.00
2022-12-19T12:59:22.604Z,1.00
2022-12-19T13:01:55.407Z,1.00
2022-12-19T13:04:31.647Z,1.00
2022-12-19T13:07:21.793Z,1.00
2022-12-19T13:10:05.783Z,1.00
2022-12-19T13:12:53.115Z,1.00
2022-12-19T13:15:40.015Z,1.00
2022-12-19T13:18:38.884Z,1.00
2022-12-19T13:21:10.572Z,1.00
2022-12-19T13:23:50.982Z,1.00
2022-12-19T13:26:46.587Z,1.00
2022-12-19T13:29:34.775Z,1.00
2022-12-19T13:32:13.456Z,1.00
2022-12-19T13:35:35.771Z,1.00
2022-12-19T13:39:58.423Z,1.00
2022-12-19T13:40:58.439Z,1.00
2022-12-19T13:43:49.346Z,1.00
2022-12-19T13:46:41.727Z,1.00
2022-12-19T13:49:14.885Z,1.00
2022-12-19T13:51:48.450Z,1.00
2022-12-19T13:54:22.994Z,1.00
2022-12-19T13:56:53.708Z,1.00
2022-12-19T13:59:25.757Z,1.00
2022-12-19T14:01:57.605Z,1.00
2022-12-19T14:04:30.293Z,1.00
2022-12-19T14:07:07.451Z,1.00
2022-12-19T14:11:26.077Z,1.00
2022-12-19T14:13:57.388Z,1.00
2022-12-19T14:15:45.187Z,1.00
2022-12-19T14:18:42.388Z,1.00
2022-12-19T14:22:04.875Z,1.00
2022-12-19T14:24:18.353Z,1.00
2022-12-19T14:28:17.738Z,1.00
2022-12-19T14:30:26.130Z,1.00
2022-12-19T14:33:44.566Z,1.00
2022-12-19T14:36:11.293Z,1.00
2022-12-19T14:39:19.822Z,1.00
2022-12-19T14:41:45.750Z,1.00
2022-12-19T14:52:51.617Z,1.00
2022-12-19T14:53:08.627Z,1.00
2022-12-19T14:54:03.586Z,1.00
2022-12-19T14:54:24.628Z,1.00
2022-12-19T14:56:17.602Z,1.00
2022-12-19T14:58:54.600Z,1.00
2022-12-19T15:01:25.721Z,1.00
2022-12-19T15:04:51.449Z,1.00
2022-12-19T15:07:08.176Z,1.00
2022-12-19T15:11:02.798Z,1.00
2022-12-19T15:14:20.907Z,1.00
2022-12-19T15:15:46.294Z,1.00
2022-12-19T15:18:21.712Z,1.00
2022-12-19T15:20:50.881Z,1.00
2022-12-19T15:23:22.719Z,1.00
2022-12-19T15:26:08.757Z,1.00
2022-12-19T15:28:43.352Z,1.00
2022-12-19T15:31:21.866Z,1.00
2022-12-19T15:36:39.286Z,1.00
2022-12-19T15:39:07.933Z,1.00
2022-12-19T15:41:36.953Z,1.00
2022-12-19T15:44:10.955Z,1.00
2022-12-19T15:46:46.630Z,1.00
2022-12-19T15:49:19.363Z,1.00
2022-12-19T15:52:12.426Z,1.00
2022-12-19T15:54:50.595Z,1.00
2022-12-19T15:57:30.278Z,1.00
2022-12-19T16:00:00.453Z,1.00
2022-12-19T16:03:04.394Z,1.00
2022-12-19T16:05:24.291Z,1.00
2022-12-19T16:07:53.323Z,1.00
2022-12-19T16:10:22.044Z,1.00
2022-12-19T16:12:52.812Z,1.00
2022-12-19T16:15:26.907Z,1.00
2022-12-19T16:17:58.083Z,1.00
2022-12-19T16:20:28.111Z,1.00
2022-12-19T16:22:57.076Z,1.00
2022-12-19T16:25:33.271Z,1.00
2022-12-19T16:28:03.559Z,1.00
2022-12-19T16:30:34.396Z,1.00
2022-12-19T16:33:04.684Z,1.00
2022-12-19T16:38:21.893Z,1.00
2022-12-19T16:40:52.112Z,1.00
2022-12-19T16:43:26.813Z,1.00
2022-12-19T16:46:00.631Z,1.00
2022-12-19T16:48:31.833Z,1.00
2022-12-19T16:51:01.022Z,1.00
2022-12-19T16:53:30.252Z,1.00
2022-12-19T16:56:00.857Z,1.00
2022-12-19T16:58:30.458Z,1.00
2022-12-19T17:00:59.255Z,1.00
2022-12-19T17:03:34.633Z,1.00
2022-12-19T17:06:03.519Z,1.00
2022-12-19T17:08:32.577Z,1.00
2022-12-19T17:11:01.222Z,1.00
2022-12-19T17:13:30.305Z,1.00
2022-12-19T17:15:59.957Z,1.00
2022-12-19T17:18:33.289Z,1.00
2022-12-19T17:21:01.945Z,1.00
2022-12-19T17:23:32.699Z,1.00
2022-12-19T17:26:01.883Z,1.00
2022-12-19T17:28:31.209Z,1.00
2022-12-19T17:31:05.938Z,1.00
2022-12-19T17:33:38.786Z,1.00
2022-12-19T17:36:08.867Z,1.00
2022-12-19T17:38:37.532Z,1.00
2022-12-19T17:41:06.224Z,1.00
2022-12-19T17:43:36.241Z,1.00
2022-12-19T17:46:05.522Z,1.00
2022-12-19T17:48:35.614Z,1.00
2022-12-19T17:51:05.935Z,1.00
2022-12-19T17:53:34.626Z,1.00
2022-12-19T17:56:03.224Z,1.00
2022-12-19T17:58:31.839Z,1.00
2022-12-19T18:01:00.594Z,1.00
2022-12-19T18:03:29.272Z,1.00
2022-12-19T18:05:59.870Z,1.00
2022-12-19T18:08:30.858Z,1.00
2022-12-19T18:11:01.160Z,1.00
2022-12-19T18:13:31.578Z,1.00
2022-12-19T18:16:02.530Z,1.00
2022-12-19T18:18:34.737Z,1.00
2022-12-19T18:21:05.479Z,1.00
2022-12-19T18:23:34.419Z,1.00
2022-12-19T18:26:03.228Z,1.00
2022-12-19T18:28:31.956Z,1.00
2022-12-19T18:31:04.034Z,1.00
2022-12-19T18:33:39.016Z,1.00
2022-12-19T18:36:16.348Z,1.00
2022-12-19T18:38:45.017Z,1.00
2022-12-19T18:41:13.808Z,1.00
2022-12-19T18:43:42.518Z,1.00
2022-12-19T18:46:14.839Z,1.00
2022-12-19T18:48:46.580Z,1.00
2022-12-19T18:51:20.061Z,1.00
2022-12-19T18:53:50.366Z,1.00
2022-12-19T18:56:19.385Z,1.00
2022-12-19T18:58:48.612Z,1.00
2022-12-19T19:01:19.177Z,1.00
2022-12-19T19:03:53.225Z,1.00
2022-12-19T19:06:25.764Z,1.00
2022-12-19T19:08:56.578Z,1.00
2022-12-19T19:11:49.704Z,1.00
2022-12-19T19:14:19.055Z,1.00
2022-12-19T19:16:47.783Z,1.00
2022-12-19T19:19:18.977Z,1.00
2022-12-19T19:21:49.026Z,1.00
2022-12-19T19:24:20.103Z,1.00
2022-12-19T19:26:49.659Z,1.00
2022-12-19T19:29:21.277Z,1.00
2022-12-19T19:31:52.689Z,1.00
2022-12-19T19:34:27.013Z,1.00
2022-12-19T19:36:59.723Z,1.00
2022-12-19T19:39:29.153Z,1.00
2022-12-19T19:41:57.781Z,1.00
2022-12-19T19:44:26.571Z,1.00
2022-12-19T19:46:57.375Z,1.00
2022-12-19T19:49:26.239Z,1.00
2022-12-19T19:52:02.245Z,1.00
2022-12-19T19:54:31.588Z,1.00
2022-12-19T19:57:00.382Z,1.00
2022-12-19T19:59:31.429Z,1.00
2022-12-19T20:02:00.444Z,1.00
2022-12-19T20:04:29.356Z,1.00
2022-12-19T20:06:59.420Z,1.00
2022-12-19T20:09:28.412Z,1.00
2022-12-19T20:11:57.340Z,1.00
2022-12-19T20:14:26.716Z,1.00
2022-12-19T20:16:55.608Z,1.00
2022-12-19T20:19:24.316Z,1.00
2022-12-19T20:21:52.870Z,1.00
2022-12-19T20:24:22.959Z,1.00
2022-12-19T20:26:51.568Z,1.00
2022-12-19T20:29:20.744Z,1.00
2022-12-19T20:31:49.555Z,1.00
2022-12-19T20:34:20.072Z,1.00
2022-12-19T20:36:48.793Z,1.00
2022-12-19T20:39:22.035Z,1.00
2022-12-19T20:41:53.016Z,1.00
2022-12-19T20:44:24.670Z,1.00
2022-12-19T20:46:55.267Z,1.00
2022-12-19T20:49:25.184Z,1.00
2022-12-19T20:51:53.821Z,1.00
2022-12-19T20:54:24.111Z,1.00
2022-12-19T20:56:54.453Z,1.00
2022-12-19T20:59:23.122Z,1.00
2022-12-19T21:01:51.790Z,1.00
2022-12-19T21:04:20.719Z,1.00
2022-12-19T21:06:49.461Z,1.00
2022-12-19T21:09:18.043Z,1.00
2022-12-19T21:11:46.711Z,1.00
2022-12-19T21:14:16.691Z,1.00
2022-12-19T21:16:45.447Z,1.00
2022-12-19T21:19:16.174Z,1.00
2022-12-19T21:21:44.771Z,1.00
2022-12-19T21:24:13.391Z,1.00
2022-12-19T21:26:41.965Z,1.00
2022-12-19T21:29:11.606Z,1.00
2022-12-19T21:31:41.669Z,1.00
2022-12-19T21:34:11.909Z,1.00
2022-12-19T21:36:40.535Z,1.00
2022-12-19T21:39:09.312Z,1.00
2022-12-19T21:41:37.902Z,1.00
2022-12-19T21:44:06.567Z,1.00
2022-12-19T21:46:35.233Z,1.00
2022-12-19T21:49:05.356Z,1.00
2022-12-19T21:51:33.933Z,1.00
2022-12-19T21:54:04.979Z,1.00
2022-12-19T21:56:37.334Z,1.00
2022-12-19T21:59:07.491Z,1.00
2022-12-19T22:01:36.338Z,1.00
2022-12-19T22:04:08.577Z,1.00
2022-12-19T22:06:38.411Z,1.00
2022-12-19T22:09:09.051Z,1.00
2022-12-19T22:11:38.213Z,1.00
2022-12-19T22:14:07.405Z,1.00
2022-12-19T22:16:37.218Z,1.00
2022-12-19T22:19:07.749Z,1.00
2022-12-19T22:21:37.129Z,1.00
2022-12-19T22:24:06.104Z,1.00
2022-12-19T22:26:35.635Z,1.00
2022-12-19T22:29:08.255Z,1.00
2022-12-19T22:31:37.698Z,1.00
2022-12-19T22:34:10.484Z,1.00
2022-12-19T22:36:40.434Z,1.00
2022-12-19T22:39:11.120Z,1.00
2022-12-19T22:41:40.849Z,1.00
2022-12-19T22:44:10.539Z,1.00
2022-12-19T22:46:40.859Z,1.00
2022-12-19T22:49:13.003Z,1.00
2022-12-19T22:51:42.269Z,1.00
2022-12-19T22:54:12.252Z,1.00
2022-12-19T22:56:41.140Z,1.00
2022-12-19T22:59:11.428Z,1.00
2022-12-19T23:01:42.286Z,1.00
2022-12-19T23:04:15.585Z,1.00
2022-12-19T23:06:45.093Z,1.00
2022-12-19T23:09:16.133Z,1.00
2022-12-19T23:11:46.589Z,1.00
2022-12-19T23:14:16.991Z,1.00
2022-12-19T23:16:46.276Z,1.00
2022-12-19T23:19:17.346Z,1.00
2022-12-19T23:21:46.222Z,1.00
2022-12-19T23:24:15.208Z,1.00
2022-12-19T23:26:44.289Z,1.00
2022-12-19T23:29:14.858Z,1.00
2022-12-19T23:31:44.979Z,1.00
2022-12-19T23:34:15.946Z,1.00
2022-12-19T23:39:33.369Z,1.00
2022-12-19T23:42:01.989Z,1.00
2022-12-19T23:44:30.923Z,1.00
2022-12-19T23:47:03.581Z,1.00
2022-12-19T23:49:35.089Z,1.00
2022-12-19T23:52:03.786Z,1.00
2022-12-19T23:54:32.493Z,1.00
2022-12-19T23:57:01.091Z,1.00
2022-12-19T23:59:29.699Z,1.00
